WetterOnline ( https://www.wetteronline.de )

Wetter aktuell Obersöchering

Aktuelles Wetter: Hohenpeißenberg (986m)

6-stündlich | Neueste Meldungen
Ortszeit Temperatur Wetter
Di, 22.09. 2:00 13.7° C wolkig
Mo, 21.09. 20:00 17.0° C bewölkt
Mo, 21.09. 14:00 17.8° C bewölkt
Mo, 21.09. 8:00 14.6° C bewölkt
Mo, 21.09. 2:00 15.0° C leicht bewölkt
So, 20.09. 20:00 15.6° C wolkenlos
So, 20.09. 14:00 17.3° C leicht bewölkt
So, 20.09. 8:00 13.0° C wolkenlos
Ortszeit Temperatur Wetter
Di, 22.09. 2:30 14.2° C leicht bewölkt
Di, 22.09. 2:20 14.2° C leicht bewölkt
Di, 22.09. 2:10 14.1° C wolkig
Di, 22.09. 2:00 13.7° C wolkig
Di, 22.09. 1:50 13.7° C wolkig
Di, 22.09. 1:40 13.4° C leicht bewölkt
Di, 22.09. 1:30 13.8° C wolkenlos
Di, 22.09. 1:00 15.9° C wolkenlos
Di, 22.09. 0:30 15.9° C wolkenlos
Di, 22.09. 0:00 15.1° C fast wolkenlos
Mo, 21.09. 23:30 15.5° C wolkenlos
Mo, 21.09. 23:00 15.0° C wolkenlos
Ortszeit Relative Feuchte Sichtweite
Di, 22.09. 2:00 88% 55 km
Mo, 21.09. 20:00 73% 40 km
Mo, 21.09. 14:00 80% 30 km
Mo, 21.09. 8:00 84% 50 km
Mo, 21.09. 2:00 88% 23 km
So, 20.09. 20:00 81% 35 km
So, 20.09. 14:00 78% 30 km
So, 20.09. 8:00 100% 2.1 km
Ortszeit Relative Feuchte Sichtweite
Di, 22.09. 2:30 84% 55 km
Di, 22.09. 2:20 84% -
Di, 22.09. 2:10 86% -
Di, 22.09. 2:00 88% 55 km
Di, 22.09. 1:50 88% -
Di, 22.09. 1:40 88% -
Di, 22.09. 1:30 88% 45 km
Di, 22.09. 1:00 76% 50 km
Di, 22.09. 0:30 79% 50 km
Di, 22.09. 0:00 93% 29 km
Mo, 21.09. 23:30 82% 50 km
Mo, 21.09. 23:00 78% 60 km
Ortszeit Niederschlagsmenge Niederschlagsart
Di, 22.09. 2:00 0.1 l/m2 in 6 Std. Regen
Mo, 21.09. 20:00 0.1 l/m2 in 12 Std. Regen
Mo, 21.09. 14:00 0.0 l/m2 in 6 Std. -
Mo, 21.09. 8:00 0.0 l/m2 in 12 Std. -
Mo, 21.09. 2:00 0.0 l/m2 in 6 Std. -
So, 20.09. 20:00 0.0 l/m2 in 12 Std. -
So, 20.09. 14:00 0.0 l/m2 in 6 Std. -
So, 20.09. 8:00 0.0 l/m2 in 12 Std. -
Ortszeit Niederschlagsmenge Niederschlagsart
Di, 22.09. 2:30 0.0 l/m2 in 1 Std. -
Di, 22.09. 2:20 keine Meldung -
Di, 22.09. 2:10 keine Meldung -
Di, 22.09. 2:00 0.0 l/m2 in 1 Std. Regen
Di, 22.09. 1:50 keine Meldung -
Di, 22.09. 1:40 keine Meldung -
Di, 22.09. 1:30 0.0 l/m2 in 1 Std. -
Di, 22.09. 1:00 0.0 l/m2 in 1 Std. -
Di, 22.09. 0:30 0.0 l/m2 in 1 Std. -
Di, 22.09. 0:00 0.0 l/m2 in 1 Std. -
Mo, 21.09. 23:30 0.0 l/m2 in 1 Std. -
Mo, 21.09. 23:00 0.0 l/m2 in 1 Std. Regen
Ortszeit Stärke Spitze Richtung
km/h Bft. km/h Grad Sektor
Di, 22.09. 2:00 11 2 25 250° W
Mo, 21.09. 20:00 6 1 26 40° NO
Mo, 21.09. 14:00 7 2 14 360° N
Mo, 21.09. 8:00 7 2 14 270° W
Mo, 21.09. 2:00 7 2 25 60° NO
So, 20.09. 20:00 14 3 18 30° NO
So, 20.09. 14:00 7 2 14 20° N
So, 20.09. 8:00 14 3 18 30° NO
Ortszeit Stärke Spitze Richtung
km/h Bft. km/h Grad Sektor
Di, 22.09. 2:30 9 2 13 260° W
Di, 22.09. 2:20 9 2 - 260° W
Di, 22.09. 2:10 7 2 - 260° W
Di, 22.09. 2:00 11 2 14 250° W
Di, 22.09. 1:50 11 2 - 250° W
Di, 22.09. 1:40 11 2 - 250° W
Di, 22.09. 1:30 7 2 11 240° SW
Di, 22.09. 1:00 6 1 9 90° O
Di, 22.09. 0:30 6 1 7 100° O
Di, 22.09. 0:00 4 1 11 140° SO
Mo, 21.09. 23:30 7 2 11 120° SO
Mo, 21.09. 23:00 7 2 18 190° S
Ortszeit Untergrenze Bedeckung Gattung
total tief tief mittel hoch
Di, 22.09. 2:00 3300 m 6/8 6/8 - - -
Mo, 21.09. 20:00 810 m 8/8 4/8 - - -
Mo, 21.09. 14:00 450 m 7/8 7/8 - - -
Mo, 21.09. 8:00 390 m 7/8 7/8 - - -
Mo, 21.09. 2:00 7200 m 4/8 0/8 - - -
So, 20.09. 20:00 - 0/8 0/8 - - -
So, 20.09. 14:00 7200 m 7/8 0/8 - - -
So, 20.09. 8:00 - 0/8 0/8 - - -
Ortszeit Bedeckungsgrad in Achtel und Wolkenuntergrenze
Di, 22.09. 2:30 3(3300m)
Di, 22.09. 2:20 3(3300m)
Di, 22.09. 2:10 5(3300m)
Di, 22.09. 2:00 6(3300m)
Di, 22.09. 1:50 6(3300m)
Di, 22.09. 1:40 3(3300m)
Di, 22.09. 1:30 keine Wolken
Di, 22.09. 1:00 keine Wolken
Di, 22.09. 0:30 keine Wolken
Di, 22.09. 0:00 1(2700m)
Mo, 21.09. 23:30 keine Wolken
Mo, 21.09. 23:00 keine Wolken
Ortszeit Stationsdruck (hPa) Tendenz (hPa in 3 Std.)
Di, 22.09. 2:00 904 - 0,7
Mo, 21.09. 20:00 905 + 0,4
Mo, 21.09. 14:00 905 0,0
Mo, 21.09. 8:00 905 + 0,4
Mo, 21.09. 2:00 904 + 0,1
So, 20.09. 20:00 904 + 0,5
So, 20.09. 14:00 904 - 0,1
So, 20.09. 8:00 904 - 0,3
Ortszeit Stationsdruck (hPa) Tendenz (hPa in 3 Std.)
Di, 22.09. 2:30 904 - 0,6
Di, 22.09. 2:20 904 keine Meldung
Di, 22.09. 2:10 904 keine Meldung
Di, 22.09. 2:00 904 - 0,7
Di, 22.09. 1:50 904 keine Meldung
Di, 22.09. 1:40 904 keine Meldung
Di, 22.09. 1:30 904 - 0,9
Di, 22.09. 1:00 904 - 0,9
Di, 22.09. 0:30 904 - 1,0
Di, 22.09. 0:00 904 - 1,0
Mo, 21.09. 23:30 904 - 0,9
Mo, 21.09. 23:00 904 - 0,4
Ortszeit Schneehöhe (cm)
Di, 22.09. 2:00 0
Mo, 21.09. 20:00 0
Mo, 21.09. 14:00 0
Mo, 21.09. 8:00 0
Mo, 21.09. 2:00 0
So, 20.09. 20:00 0
So, 20.09. 14:00 0
So, 20.09. 8:00 0
Ortszeit Schneehöhe (cm)
Di, 22.09. 2:30 0
Di, 22.09. 2:20 0
Di, 22.09. 2:10 0
Di, 22.09. 2:00 0
Di, 22.09. 1:50 0
Di, 22.09. 1:40 0
Di, 22.09. 1:30 0
Di, 22.09. 1:00 0
Di, 22.09. 0:30 0
Di, 22.09. 0:00 0
Mo, 21.09. 23:30 0
Mo, 21.09. 23:00 0
Link zu dieser Seite / Seite empfehlen

Das Wetter in ...